Latest Weather Observations for Coober Pedy Airport

IDS60801

Issued at 9:11 pm CST Friday 26 April 2019 (issued every 10 minutes, with the page automatically refreshed every 10 minutes)

About weather observations | Map of weather stations | Latest weather observations for SA | Other Formats
Station Details ID: 016090 Name: COOBER PEDY AIRPORT Lat: -29.03 Lon: 134.72 Height: 225.0 m
Data from the previous 72 hours. | See also: Recent months at Coober Pedy Airport
Date/Time
CST
Temp
°C
App
Temp
°C
Dew
Point
°C
Rel
Hum
%
Delta-T
°C
Wind Press
QNH
hPa
Press
MSL
hPa
Rain since
9am
mm
Dir  Spd
km/h
Gust
km/h
Spd
kts
Gust
kts
26/09:00pm 17.0 - - - - S 13 15 7 8 1025.6 1024.9 0.0
26/08:30pm 17.7 - - - - SSE 13 15 7 8 1025.3 1024.6 0.0
26/08:00pm 19.0 - - - - S 19 22 10 12 1025.0 1024.3 0.0
26/07:30pm 19.7 - - - - SSE 20 24 11 13 1024.7 1024.0 0.0
26/07:00pm 20.2 - - - - SSE 22 26 12 14 1024.4 1023.7 0.0
26/06:30pm 20.9 - - - - SSE 24 32 13 17 1024.1 1023.4 0.0
26/06:00pm 21.6 - - - - SSE 28 35 15 19 1023.9 1023.2 0.0
26/05:30pm 22.1 - - - - S 28 37 15 20 1023.5 1022.7 0.0
26/05:00pm 22.4 - - - - SSE 28 37 15 20 1023.4 1022.6 0.0
26/04:30pm 22.8 - - - - S 28 43 15 23 1023.3 1022.5 0.0
26/04:00pm 22.8 - - - - S 28 37 15 20 1023.3 1022.5 0.0
26/03:30pm 22.9 - - - - S 28 43 15 23 1023.3 1022.5 0.0
26/03:00pm 22.8 - - - - S 30 41 16 22 1023.4 1022.6 0.0
26/02:30pm 22.7 - - - - S 32 46 17 25 1023.4 1022.6 0.0
26/02:00pm 22.1 - - - - SSW 32 43 17 23 1023.8 1023.1 0.0
26/01:30pm 22.1 - - - - S 28 35 15 19 1024.2 1023.5 0.0
26/01:00pm 21.3 - - - - S 32 39 17 21 1024.5 1023.8 0.0
26/12:30pm 20.5 - - - - S 32 43 17 23 1024.9 1024.2 0.0
26/12:00pm 20.7 - - - - S 28 39 15 21 1025.4 1024.7 0.0
26/11:30am 19.5 - - - - SSE 32 44 17 24 1025.8 1025.1 0.0
26/11:00am 18.6 - - - - SSE 32 43 17 23 1026.1 1025.4 0.0
26/10:30am 19.0 - - - - SSE 33 43 18 23 1026.4 1025.7 0.0
26/10:00am 17.7 - - - - SSE 35 43 19 23 1026.5 1025.8 0.0
26/09:30am 16.7 - - - - SSE 33 43 18 23 1026.6 1025.9 0.0
26/09:00am 16.1 - - - - SSE 33 39 18 21 1026.4 1025.7 0.0
26/08:30am 14.9 - - - - SSE 28 37 15 20 1026.1 1025.4 0.0
26/08:00am 13.5 - - - - S 24 28 13 15 1025.8 1025.1 0.0
26/07:30am 12.6 - - - - S 24 30 13 16 1025.3 1024.6 0.0
26/07:00am 12.3 - - - - S 24 28 13 15 1025.0 1024.3 0.0
26/06:30am 12.4 - - - - S 22 28 12 15 1024.5 1023.8 0.0
26/06:00am 12.5 - - - - S 22 28 12 15 1024.0 1023.3 0.0
26/05:30am 12.7 - - - - S 22 28 12 15 1023.7 1022.9 0.0
26/05:00am 13.0 - - - - S 22 28 12 15 1023.4 1022.6 0.0
26/04:30am 13.2 - - - - S 22 28 12 15 1023.5 1022.7 0.0
26/04:00am 13.6 - - - - S 22 26 12 14 1023.3 1022.5 0.0
26/03:30am 14.0 - - - - S 22 26 12 14 1023.4 1022.6 0.0
26/03:00am 14.5 - - - - S 22 28 12 15 1023.5 1022.7 0.0
26/02:30am 14.9 - - - - S 24 30 13 16 1023.5 1022.7 0.0
26/02:00am 15.3 - - - - S 26 30 14 16 1023.6 1022.8 0.0
26/01:30am 15.8 - - - - S 26 32 14 17 1023.7 1022.9 0.0
26/01:00am 16.2 - - - - S 26 33 14 18 1023.7 1022.9 0.0
26/12:30am 16.3 - - - - S 22 28 12 15 1023.7 1022.9 0.0
26/12:00am 16.4 - - - - S 20 24 11 13 1023.8 1023.1 0.0
 
Date/Time
CST
Temp
°C
App
Temp
°C
Dew
Point
°C
Rel
Hum
%
Delta-T
°C
Wind Press
QNH
hPa
Press
MSL
hPa
Rain since
9am
mm
Dir  Spd
km/h
Gust
km/h
Spd
kts
Gust
kts
25/11:30pm 16.8 - - - - S 19 20 10 11 1023.9 1023.2 0.0
25/11:00pm 17.3 - - - - S 19 20 10 11 1023.9 1023.2 0.0
25/10:30pm 18.2 - - - - S 19 22 10 12 1023.9 1023.2 0.0
25/10:00pm 18.9 - - - - S 20 22 11 12 1023.8 1023.1 0.0
25/09:30pm 19.4 - - - - S 20 26 11 14 1023.7 1022.9 0.0
25/09:00pm 19.7 - - - - S 20 24 11 13 1023.4 1022.6 0.0
25/08:30pm 20.2 - - - - S 19 22 10 12 1023.2 1022.4 0.0
25/08:00pm 20.8 - - - - S 19 20 10 11 1022.9 1022.1 0.0
25/07:30pm 21.5 - - - - S 19 20 10 11 1022.6 1021.8 0.0
25/07:00pm 22.2 - - - - S 20 24 11 13 1022.2 1021.4 0.0
25/06:30pm 22.9 - - - - S 20 24 11 13 1021.8 1021.1 0.0
25/06:00pm 23.6 - - - - S 22 28 12 15 1021.5 1020.8 0.0
25/05:30pm 24.3 - - - - S 22 30 12 16 1021.4 1020.7 0.0
25/05:00pm 24.7 - - - - S 19 22 10 12 1021.3 1020.6 0.0
25/04:30pm 24.7 - - - - S 17 28 9 15 1021.2 1020.5 0.0
25/04:00pm 24.5 - - - - S 20 30 11 16 1021.1 1020.4 0.0
25/03:30pm 24.7 - - - - S 20 28 11 15 1021.2 1020.5 0.0
25/03:00pm 24.8 - - - - S 17 28 9 15 1021.4 1020.7 0.0
25/02:30pm 25.0 - - - - SSE 13 24 7 13 1021.6 1020.9 0.0
25/02:00pm 24.3 - - - - S 15 24 8 13 1021.9 1021.2 0.0
25/01:30pm 24.3 - - - - SSW 19 26 10 14 1022.3 1021.5 0.0
25/01:00pm 23.6 - - - - S 17 26 9 14 1022.9 1022.1 0.0
25/12:30pm 23.5 - - - - S 17 28 9 15 1023.6 1022.8 0.0
25/12:00pm 22.4 - - - - SSE 20 26 11 14 1024.1 1023.4 0.0
25/11:30am 21.7 - - - - SSE 19 28 10 15 1024.6 1023.9 0.0
25/11:00am 20.2 - - - - SSE 20 28 11 15 1024.8 1024.1 0.0
25/10:30am 19.8 - - - - SE 24 32 13 17 1025.0 1024.3 0.0
25/10:00am 18.7 - - - - SSE 26 32 14 17 1025.2 1024.5 0.0
25/09:30am 17.4 - - - - SSE 28 35 15 19 1025.2 1024.5 0.0
25/09:00am 16.0 - - - - SSE 28 35 15 19 1025.0 1024.3 0.0
25/08:30am 14.7 - - - - SSE 26 33 14 18 1024.9 1024.2 0.0
25/08:00am 13.5 - - - - SSE 22 26 12 14 1024.8 1024.1 0.0
25/07:30am 12.3 - - - - SSE 19 20 10 11 1024.6 1023.9 0.0
25/07:00am 11.7 - - - - S 20 24 11 13 1024.3 1023.6 0.0
25/06:30am 11.8 - - - - S 19 22 10 12 1024.1 1023.4 0.0
25/06:00am 11.9 - - - - S 19 20 10 11 1023.8 1023.1 0.0
25/05:30am 12.2 - - - - S 20 24 11 13 1023.5 1022.7 0.0
25/05:00am 12.3 - - - - S 19 24 10 13 1023.4 1022.6 0.0
25/04:30am 12.8 - - - - S 20 22 11 12 1023.2 1022.4 0.0
25/04:00am 12.9 - - - - S 20 22 11 12 1023.2 1022.4 0.0
25/03:30am 13.7 - - - - S 20 26 11 14 1023.2 1022.4 0.0
25/03:00am 13.8 - - - - S 19 22 10 12 1023.4 1022.6 0.0
25/02:30am 14.1 - - - - S 20 24 11 13 1023.5 1022.7 0.0
25/02:00am 14.1 - - - - S 20 24 11 13 1023.7 1022.9 0.0
25/01:30am 14.2 - - - - S 19 22 10 12 1023.9 1023.2 0.0
25/01:00am 14.4 - - - - SSW 17 20 9 11 1024.0 1023.3 0.0
25/12:30am 14.6 - - - - S 17 19 9 10 1024.1 1023.4 0.0
25/12:00am 14.9 - - - - SSW 15 17 8 9 1024.2 1023.5 0.0
 
Date/Time
CST
Temp
°C
App
Temp
°C
Dew
Point
°C
Rel
Hum
%
Delta-T
°C
Wind Press
QNH
hPa
Press
MSL
hPa
Rain since
9am
mm
Dir  Spd
km/h
Gust
km/h
Spd
kts
Gust
kts
24/11:30pm 15.6 - - - - S 15 19 8 10 1024.4 1023.7 0.0
24/11:00pm 16.8 - - - - SSE 17 20 9 11 1024.5 1023.8 0.0
24/10:30pm 17.0 - - - - SSE 17 19 9 10 1024.7 1024.0 0.0
24/10:00pm 17.6 - - - - SSE 17 19 9 10 1024.7 1024.0 0.0
24/09:30pm 18.5 - - - - SSE 19 22 10 12 1024.7 1024.0 0.0
24/09:00pm 19.2 - - - - SSE 17 20 9 11 1024.5 1023.8 0.0
24/08:30pm 20.1 - - - - S 17 26 9 14 1024.2 1023.5 0.0
24/08:00pm 19.8 - - - - S 15 17 8 9 1024.1 1023.4 0.0
24/07:30pm 20.7 - - - - S 17 20 9 11 1023.9 1023.2 0.0
24/07:00pm 21.5 - - - - S 17 20 9 11 1023.7 1022.9 0.0
24/06:30pm 22.6 - - - - S 22 28 12 15 1023.4 1022.6 0.0
24/06:00pm 23.2 - - - - S 26 32 14 17 1023.1 1022.3 0.0
24/05:30pm 24.0 - - - - S 24 30 13 16 1023.0 1022.2 0.0
24/05:00pm 24.3 - - - - S 26 35 14 19 1022.7 1021.9 0.0
24/04:30pm 24.6 - - - - SSW 24 35 13 19 1022.5 1021.7 0.0
24/04:00pm 25.1 - - - - S 24 33 13 18 1022.5 1021.7 0.0
24/03:30pm 24.7 - - - - S 24 35 13 19 1022.7 1021.9 0.0
24/03:00pm 24.6 - - - - SSW 24 37 13 20 1022.8 1022.0 0.0
24/02:30pm 24.9 - - - - SSW 24 35 13 19 1023.1 1022.3 0.0
24/02:00pm 24.5 - - - - S 24 33 13 18 1023.4 1022.6 0.0
24/01:30pm 24.3 - - - - SSW 26 41 14 22 1023.7 1022.9 0.0
24/01:00pm 23.5 - - - - SSW 26 39 14 21 1024.4 1023.7 0.0
24/12:30pm 23.6 - - - - SSW 24 32 13 17 1024.8 1024.1 0.0
24/12:00pm 23.1 - - - - S 24 35 13 19 1025.3 1024.6 0.0
24/11:30am 22.6 - - - - S 22 33 12 18 1025.7 1025.0 0.0
24/11:00am 22.6 - - - - S 17 24 9 13 1026.1 1025.4 0.0
24/10:30am 21.4 - - - - SSE 11 15 6 8 1026.3 1025.6 0.0
24/10:00am 20.3 - - - - SSE 13 17 7 9 1026.4 1025.7 0.0
24/09:30am 19.1 - - - - SE 11 15 6 8 1026.3 1025.6 0.0
24/09:00am 17.9 - - - - SE 11 15 6 8 1026.1 1025.4 0.0
24/08:30am 16.6 - - - - SE 13 15 7 8 1025.9 1025.2 0.0
24/08:00am 14.9 - - - - SE 9 13 5 7 1025.5 1024.8 0.0
24/07:30am 13.4 - - - - SSE 11 11 6 6 1025.1 1024.4 0.0
24/07:00am 12.4 - - - - SE 9 9 5 5 1024.7 1024.0 0.0
24/06:30am 12.8 - - - - SE 11 13 6 7 1024.4 1023.7 0.0
24/06:00am 12.7 - - - - SSE 13 15 7 8 1024.2 1023.5 0.0
24/05:30am 12.7 - - - - SSE 11 11 6 6 1024.0 1023.3 0.0
24/05:00am 13.3 - - - - SSE 11 13 6 7 1023.8 1023.1 0.0
24/04:30am 13.9 - - - - SSE 9 11 5 6 1023.6 1022.8 0.0
24/04:00am 14.6 - - - - SSE 13 15 7 8 1023.7 1022.9 0.0
24/03:30am 15.0 - - - - SSE 17 20 9 11 1023.7 1022.9 0.0
24/03:00am 15.2 - - - - SSE 17 19 9 10 1023.9 1023.2 0.0
24/02:30am 15.4 - - - - SSE 15 17 8 9 1024.1 1023.4 0.0
24/02:00am 15.3 - - - - S 13 15 7 8 1024.3 1023.6 0.0
24/01:30am 16.1 - - - - S 13 15 7 8 1024.4 1023.7 0.0
24/01:00am 16.9 - - - - S 13 17 7 9 1024.6 1023.9 0.0
24/12:30am 17.0 - - - - S 13 15 7 8 1024.6 1023.9 0.0
24/12:00am 18.1 - - - - SSE 15 17 8 9 1024.7 1024.0 0.0
 
Date/Time
CST
Temp
°C
App
Temp
°C
Dew
Point
°C
Rel
Hum
%
Delta-T
°C
Wind Press
QNH
hPa
Press
MSL
hPa
Rain since
9am
mm
Dir  Spd
km/h
Gust
km/h
Spd
kts
Gust
kts
23/11:30pm 18.6 - - - - SSE 15 19 8 10 1024.8 1024.1 0.0
23/11:00pm 19.3 - - - - SSE 19 22 10 12 1024.8 1024.1 0.0
23/10:30pm 19.7 - - - - SSE 17 20 9 11 1024.9 1024.2 0.0
23/10:00pm 20.5 - - - - SSE 19 20 10 11 1024.9 1024.2 0.0
23/09:30pm 21.2 - - - - SSE 20 26 11 14 1024.8 1024.1 0.0

Other formats

Comma delimited format used in spreadsheet applications
http://www.bom.gov.au/fwo/IDS60801/IDS60801.95458.axf

JavaScript Object Notation format (JSON) in row-major order
http://www.bom.gov.au/fwo/IDS60801/IDS60801.95458.json

Data quality

Most of these data are generated automatically and are frequently updated. Quality checks on data are not normally performed. It is possible for incorrect values to appear. Refer to information at About Latest Weather Observations and please check the disclaimer before using these data.